sensor_id;sensor_type;location;lat;lon;timestamp;temperature;humidity
71128;SHT30;59249;59.736;30.568;2023-01-29T00:00:19;-2.07;83.91
71128;SHT30;59249;59.736;30.568;2023-01-29T00:02:48;-2.10;83.84
71128;SHT30;59249;59.736;30.568;2023-01-29T00:05:17;-2.18;83.85
71128;SHT30;59249;59.736;30.568;2023-01-29T00:07:56;-2.09;83.84
71128;SHT30;59249;59.736;30.568;2023-01-29T00:10:25;-2.10;83.91
71128;SHT30;59249;59.736;30.568;2023-01-29T00:12:54;-2.13;83.92
71128;SHT30;59249;59.736;30.568;2023-01-29T00:15:25;-2.11;84.21
71128;SHT30;59249;59.736;30.568;2023-01-29T00:17:59;-2.15;84.12
71128;SHT30;59249;59.736;30.568;2023-01-29T00:20:28;-2.06;84.15
71128;SHT30;59249;59.736;30.568;2023-01-29T00:23:06;-2.02;84.16
71128;SHT30;59249;59.736;30.568;2023-01-29T00:25:35;-2.06;84.24
71128;SHT30;59249;59.736;30.568;2023-01-29T00:28:04;-2.06;84.19
71128;SHT30;59249;59.736;30.568;2023-01-29T00:30:33;-2.01;84.30
71128;SHT30;59249;59.736;30.568;2023-01-29T00:33:02;-1.94;84.41
71128;SHT30;59249;59.736;30.568;2023-01-29T00:35:31;-1.97;84.52
71128;SHT30;59249;59.736;30.568;2023-01-29T00:38:00;-1.92;84.43
71128;SHT30;59249;59.736;30.568;2023-01-29T00:40:30;-1.94;84.40
71128;SHT30;59249;59.736;30.568;2023-01-29T00:43:21;-1.87;84.35
71128;SHT30;59249;59.736;30.568;2023-01-29T00:46:08;-1.79;84.42
71128;SHT30;59249;59.736;30.568;2023-01-29T00:48:37;-1.90;84.39
71128;SHT30;59249;59.736;30.568;2023-01-29T00:51:06;-1.79;84.25
71128;SHT30;59249;59.736;30.568;2023-01-29T00:53:34;-1.79;84.21
71128;SHT30;59249;59.736;30.568;2023-01-29T00:56:05;-1.81;84.28
71128;SHT30;59249;59.736;30.568;2023-01-29T00:58:34;-1.74;84.24
71128;SHT30;59249;59.736;30.568;2023-01-29T01:01:03;-1.74;84.27
71128;SHT30;59249;59.736;30.568;2023-01-29T01:03:32;-1.72;83.92
71128;SHT30;59249;59.736;30.568;2023-01-29T01:06:03;-1.80;84.14
71128;SHT30;59249;59.736;30.568;2023-01-29T01:08:32;-1.67;84.09
71128;SHT30;59249;59.736;30.568;2023-01-29T01:11:22;-1.64;84.06
71128;SHT30;59249;59.736;30.568;2023-01-29T01:13:50;-1.64;84.01
71128;SHT30;59249;59.736;30.568;2023-01-29T01:16:19;-1.67;83.98
71128;SHT30;59249;59.736;30.568;2023-01-29T01:19:06;-1.65;83.96
71128;SHT30;59249;59.736;30.568;2023-01-29T01:21:36;-1.64;84.17
71128;SHT30;59249;59.736;30.568;2023-01-29T01:24:05;-1.56;84.09
71128;SHT30;59249;59.736;30.568;2023-01-29T01:26:35;-1.63;84.04
71128;SHT30;59249;59.736;30.568;2023-01-29T01:29:04;-1.57;84.01
71128;SHT30;59249;59.736;30.568;2023-01-29T01:31:33;-1.59;83.91
71128;SHT30;59249;59.736;30.568;2023-01-29T01:34:01;-1.57;84.03
71128;SHT30;59249;59.736;30.568;2023-01-29T01:36:30;-1.64;84.02
71128;SHT30;59249;59.736;30.568;2023-01-29T01:38:59;-1.56;84.01
71128;SHT30;59249;59.736;30.568;2023-01-29T01:41:29;-1.53;83.94
71128;SHT30;59249;59.736;30.568;2023-01-29T01:44:01;-1.62;84.03
71128;SHT30;59249;59.736;30.568;2023-01-29T01:46:33;-1.53;83.92
71128;SHT30;59249;59.736;30.568;2023-01-29T01:49:08;-1.64;84.04
71128;SHT30;59249;59.736;30.568;2023-01-29T01:51:44;-1.57;84.05
71128;SHT30;59249;59.736;30.568;2023-01-29T01:54:18;-1.48;83.90
71128;SHT30;59249;59.736;30.568;2023-01-29T01:56:55;-1.59;83.89
71128;SHT30;59249;59.736;30.568;2023-01-29T01:59:33;-1.46;83.91
71128;SHT30;59249;59.736;30.568;2023-01-29T02:02:05;-1.47;83.84
71128;SHT30;59249;59.736;30.568;2023-01-29T02:04:52;-1.44;84.01
71128;SHT30;59249;59.736;30.568;2023-01-29T02:07:42;-1.46;84.02
71128;SHT30;59249;59.736;30.568;2023-01-29T02:10:35;-1.45;84.10
71128;SHT30;59249;59.736;30.568;2023-01-29T02:13:06;-1.50;84.19
71128;SHT30;59249;59.736;30.568;2023-01-29T02:15:36;-1.52;84.36
71128;SHT30;59249;59.736;30.568;2023-01-29T02:18:08;-1.35;84.35
71128;SHT30;59249;59.736;30.568;2023-01-29T02:20:40;-1.43;84.62
71128;SHT30;59249;59.736;30.568;2023-01-29T02:23:57;-1.36;84.59
71128;SHT30;59249;59.736;30.568;2023-01-29T02:26:47;-1.27;84.39
71128;SHT30;59249;59.736;30.568;2023-01-29T02:29:28;-1.35;84.35
71128;SHT30;59249;59.736;30.568;2023-01-29T02:32:15;-1.33;84.40
71128;SHT30;59249;59.736;30.568;2023-01-29T02:34:56;-1.35;84.42
71128;SHT30;59249;59.736;30.568;2023-01-29T02:37:54;-1.31;84.12
71128;SHT30;59249;59.736;30.568;2023-01-29T02:40:31;-1.20;84.22
71128;SHT30;59249;59.736;30.568;2023-01-29T02:43:17;-1.27;84.34
71128;SHT30;59249;59.736;30.568;2023-01-29T02:46:00;-1.22;84.30
71128;SHT30;59249;59.736;30.568;2023-01-29T02:48:40;-1.29;84.39
71128;SHT30;59249;59.736;30.568;2023-01-29T02:51:18;-1.26;84.46
71128;SHT30;59249;59.736;30.568;2023-01-29T02:53:58;-1.22;84.73
71128;SHT30;59249;59.736;30.568;2023-01-29T02:56:36;-1.30;84.61
71128;SHT30;59249;59.736;30.568;2023-01-29T02:59:11;-1.17;84.60
71128;SHT30;59249;59.736;30.568;2023-01-29T03:01:48;-1.23;84.76
71128;SHT30;59249;59.736;30.568;2023-01-29T03:04:25;-1.20;84.79
71128;SHT30;59249;59.736;30.568;2023-01-29T03:07:02;-1.15;84.71
71128;SHT30;59249;59.736;30.568;2023-01-29T03:09:36;-1.17;84.63
71128;SHT30;59249;59.736;30.568;2023-01-29T03:12:12;-1.13;84.67
71128;SHT30;59249;59.736;30.568;2023-01-29T03:14:57;-1.03;84.64
71128;SHT30;59249;59.736;30.568;2023-01-29T03:17:51;-1.15;84.72
71128;SHT30;59249;59.736;30.568;2023-01-29T03:20:26;-1.04;84.57
71128;SHT30;59249;59.736;30.568;2023-01-29T03:23:13;-1.08;84.64
71128;SHT30;59249;59.736;30.568;2023-01-29T03:25:44;-1.09;84.68
71128;SHT30;59249;59.736;30.568;2023-01-29T03:28:32;-1.04;84.66
71128;SHT30;59249;59.736;30.568;2023-01-29T03:31:18;-0.95;84.73
71128;SHT30;59249;59.736;30.568;2023-01-29T03:34:11;-1.05;84.68
71128;SHT30;59249;59.736;30.568;2023-01-29T03:36:49;-0.99;84.86
71128;SHT30;59249;59.736;30.568;2023-01-29T03:39:25;-0.95;84.91
71128;SHT30;59249;59.736;30.568;2023-01-29T03:42:03;-1.00;84.95
71128;SHT30;59249;59.736;30.568;2023-01-29T03:44:37;-0.95;85.01
71128;SHT30;59249;59.736;30.568;2023-01-29T03:47:23;-0.92;84.82
71128;SHT30;59249;59.736;30.568;2023-01-29T03:50:04;-0.87;84.94
71128;SHT30;59249;59.736;30.568;2023-01-29T03:52:42;-1.04;85.06
71128;SHT30;59249;59.736;30.568;2023-01-29T03:55:16;-0.94;85.15
71128;SHT30;59249;59.736;30.568;2023-01-29T03:57:58;-0.90;85.06
71128;SHT30;59249;59.736;30.568;2023-01-29T04:00:34;-0.89;85.25
71128;SHT30;59249;59.736;30.568;2023-01-29T04:03:13;-0.82;85.17
71128;SHT30;59249;59.736;30.568;2023-01-29T04:05:51;-0.83;85.34
71128;SHT30;59249;59.736;30.568;2023-01-29T04:08:33;-0.80;85.46
71128;SHT30;59249;59.736;30.568;2023-01-29T04:11:11;-0.75;85.36
71128;SHT30;59249;59.736;30.568;2023-01-29T04:13:42;-0.71;85.57
71128;SHT30;59249;59.736;30.568;2023-01-29T04:16:20;-0.69;85.40
71128;SHT30;59249;59.736;30.568;2023-01-29T04:19:13;-0.70;85.45
71128;SHT30;59249;59.736;30.568;2023-01-29T04:21:46;-0.57;85.41
71128;SHT30;59249;59.736;30.568;2023-01-29T04:24:16;-0.54;85.49
71128;SHT30;59249;59.736;30.568;2023-01-29T04:27:10;-0.50;85.54
71128;SHT30;59249;59.736;30.568;2023-01-29T04:30:01;-0.61;85.43
71128;SHT30;59249;59.736;30.568;2023-01-29T04:33:03;-0.48;85.49
71128;SHT30;59249;59.736;30.568;2023-01-29T04:35:50;-0.53;85.52
71128;SHT30;59249;59.736;30.568;2023-01-29T04:38:38;-0.53;85.52
71128;SHT30;59249;59.736;30.568;2023-01-29T04:41:17;-0.45;85.77
71128;SHT30;59249;59.736;30.568;2023-01-29T04:44:03;-0.47;85.67
71128;SHT30;59249;59.736;30.568;2023-01-29T04:46:46;-0.46;85.78
71128;SHT30;59249;59.736;30.568;2023-01-29T04:49:30;-0.47;85.85
71128;SHT30;59249;59.736;30.568;2023-01-29T04:52:08;-0.42;86.02
71128;SHT30;59249;59.736;30.568;2023-01-29T04:54:55;-0.36;86.26
71128;SHT30;59249;59.736;30.568;2023-01-29T04:57:40;-0.32;86.27
71128;SHT30;59249;59.736;30.568;2023-01-29T05:00:17;-0.39;86.47
71128;SHT30;59249;59.736;30.568;2023-01-29T05:02:48;-0.34;86.64
71128;SHT30;59249;59.736;30.568;2023-01-29T05:05:19;-0.24;86.85
71128;SHT30;59249;59.736;30.568;2023-01-29T05:07:49;-0.25;86.67
71128;SHT30;59249;59.736;30.568;2023-01-29T05:10:22;-0.22;86.79
71128;SHT30;59249;59.736;30.568;2023-01-29T05:12:59;-0.18;86.97
71128;SHT30;59249;59.736;30.568;2023-01-29T05:15:38;-0.20;86.96
71128;SHT30;59249;59.736;30.568;2023-01-29T05:18:08;-0.12;87.10
71128;SHT30;59249;59.736;30.568;2023-01-29T05:20:40;0.02;87.22
71128;SHT30;59249;59.736;30.568;2023-01-29T05:23:15;-0.08;87.18
71128;SHT30;59249;59.736;30.568;2023-01-29T05:25:46;-0.08;87.24
71128;SHT30;59249;59.736;30.568;2023-01-29T05:28:15;-0.17;87.25
71128;SHT30;59249;59.736;30.568;2023-01-29T05:30:46;-0.12;87.39
71128;SHT30;59249;59.736;30.568;2023-01-29T05:33:19;0.03;87.32
71128;SHT30;59249;59.736;30.568;2023-01-29T05:35:49;0.01;87.32
71128;SHT30;59249;59.736;30.568;2023-01-29T05:38:19;0.03;87.25
71128;SHT30;59249;59.736;30.568;2023-01-29T05:40:49;0.10;87.31
71128;SHT30;59249;59.736;30.568;2023-01-29T05:43:20;0.04;87.29
71128;SHT30;59249;59.736;30.568;2023-01-29T05:45:53;0.09;87.25
71128;SHT30;59249;59.736;30.568;2023-01-29T05:48:22;0.08;87.41
71128;SHT30;59249;59.736;30.568;2023-01-29T05:50:51;0.15;87.09
71128;SHT30;59249;59.736;30.568;2023-01-29T05:53:20;0.16;87.35
71128;SHT30;59249;59.736;30.568;2023-01-29T05:55:50;0.19;87.25
71128;SHT30;59249;59.736;30.568;2023-01-29T05:58:19;0.18;87.42
71128;SHT30;59249;59.736;30.568;2023-01-29T06:00:48;0.09;87.31
71128;SHT30;59249;59.736;30.568;2023-01-29T06:03:17;0.00;87.35
71128;SHT30;59249;59.736;30.568;2023-01-29T06:05:45;0.09;87.44
71128;SHT30;59249;59.736;30.568;2023-01-29T06:08:14;0.01;87.63
71128;SHT30;59249;59.736;30.568;2023-01-29T06:10:42;-0.13;87.76
71128;SHT30;59249;59.736;30.568;2023-01-29T06:13:12;-0.10;87.85
71128;SHT30;59249;59.736;30.568;2023-01-29T06:15:41;-0.03;87.87
71128;SHT30;59249;59.736;30.568;2023-01-29T06:18:09;-0.19;88.00
71128;SHT30;59249;59.736;30.568;2023-01-29T06:20:38;-0.07;88.06
71128;SHT30;59249;59.736;30.568;2023-01-29T06:23:07;-0.05;87.98
71128;SHT30;59249;59.736;30.568;2023-01-29T06:25:35;-0.01;88.05
71128;SHT30;59249;59.736;30.568;2023-01-29T06:28:04;0.15;88.05
71128;SHT30;59249;59.736;30.568;2023-01-29T06:30:34;0.10;87.88
71128;SHT30;59249;59.736;30.568;2023-01-29T06:33:03;0.23;87.94
71128;SHT30;59249;59.736;30.568;2023-01-29T06:35:33;0.17;87.89
71128;SHT30;59249;59.736;30.568;2023-01-29T06:38:04;0.25;87.98
71128;SHT30;59249;59.736;30.568;2023-01-29T06:40:33;0.30;87.81
71128;SHT30;59249;59.736;30.568;2023-01-29T06:43:02;0.28;87.65
71128;SHT30;59249;59.736;30.568;2023-01-29T06:45:34;0.32;87.77
71128;SHT30;59249;59.736;30.568;2023-01-29T06:48:10;0.26;87.76
71128;SHT30;59249;59.736;30.568;2023-01-29T06:50:53;0.38;87.65
71128;SHT30;59249;59.736;30.568;2023-01-29T06:53:22;0.44;87.65
71128;SHT30;59249;59.736;30.568;2023-01-29T06:55:52;0.44;87.44
71128;SHT30;59249;59.736;30.568;2023-01-29T06:58:22;0.43;87.45
71128;SHT30;59249;59.736;30.568;2023-01-29T07:00:52;0.50;87.48
71128;SHT30;59249;59.736;30.568;2023-01-29T07:03:21;0.53;87.38
71128;SHT30;59249;59.736;30.568;2023-01-29T07:05:50;0.62;87.25
71128;SHT30;59249;59.736;30.568;2023-01-29T07:08:19;0.66;87.22
71128;SHT30;59249;59.736;30.568;2023-01-29T07:10:49;0.68;87.05
71128;SHT30;59249;59.736;30.568;2023-01-29T07:13:19;0.76;87.06
71128;SHT30;59249;59.736;30.568;2023-01-29T07:15:47;0.71;86.92
71128;SHT30;59249;59.736;30.568;2023-01-29T07:18:22;0.73;86.97
71128;SHT30;59249;59.736;30.568;2023-01-29T07:20:54;0.74;86.91
71128;SHT30;59249;59.736;30.568;2023-01-29T07:23:25;0.67;86.79
71128;SHT30;59249;59.736;30.568;2023-01-29T07:25:54;0.82;86.76
71128;SHT30;59249;59.736;30.568;2023-01-29T07:28:23;0.94;86.69
71128;SHT30;59249;59.736;30.568;2023-01-29T07:30:56;0.91;86.66
71128;SHT30;59249;59.736;30.568;2023-01-29T07:33:29;0.85;86.59
71128;SHT30;59249;59.736;30.568;2023-01-29T07:35:58;0.88;86.46
71128;SHT30;59249;59.736;30.568;2023-01-29T07:38:28;0.92;86.40
71128;SHT30;59249;59.736;30.568;2023-01-29T07:40:57;1.00;86.34
71128;SHT30;59249;59.736;30.568;2023-01-29T07:43:28;0.92;86.39
71128;SHT30;59249;59.736;30.568;2023-01-29T07:46:01;0.92;86.46
71128;SHT30;59249;59.736;30.568;2023-01-29T07:48:35;0.99;86.34
71128;SHT30;59249;59.736;30.568;2023-01-29T07:51:04;1.15;86.40
71128;SHT30;59249;59.736;30.568;2023-01-29T07:53:33;1.08;86.23
71128;SHT30;59249;59.736;30.568;2023-01-29T07:56:02;1.16;86.10
71128;SHT30;59249;59.736;30.568;2023-01-29T07:58:30;1.17;86.13
71128;SHT30;59249;59.736;30.568;2023-01-29T08:01:04;1.07;86.14
71128;SHT30;59249;59.736;30.568;2023-01-29T08:03:36;1.26;86.00
71128;SHT30;59249;59.736;30.568;2023-01-29T08:06:05;1.34;85.89
71128;SHT30;59249;59.736;30.568;2023-01-29T08:08:34;1.36;85.58
71128;SHT30;59249;59.736;30.568;2023-01-29T08:11:04;1.29;85.65
71128;SHT30;59249;59.736;30.568;2023-01-29T08:13:33;1.40;85.61
71128;SHT30;59249;59.736;30.568;2023-01-29T08:16:04;1.43;85.24
71128;SHT30;59249;59.736;30.568;2023-01-29T08:18:37;1.52;85.35
71128;SHT30;59249;59.736;30.568;2023-01-29T08:21:09;1.53;85.25
71128;SHT30;59249;59.736;30.568;2023-01-29T08:23:40;1.52;85.09
71128;SHT30;59249;59.736;30.568;2023-01-29T08:26:08;1.49;84.94
71128;SHT30;59249;59.736;30.568;2023-01-29T08:28:37;1.51;84.91
71128;SHT30;59249;59.736;30.568;2023-01-29T08:31:13;1.61;84.93
71128;SHT30;59249;59.736;30.568;2023-01-29T08:33:43;1.52;84.82
71128;SHT30;59249;59.736;30.568;2023-01-29T08:36:12;1.58;84.76
71128;SHT30;59249;59.736;30.568;2023-01-29T08:38:41;1.58;84.69
71128;SHT30;59249;59.736;30.568;2023-01-29T08:41:09;1.58;84.66
71128;SHT30;59249;59.736;30.568;2023-01-29T08:43:38;1.60;84.61
71128;SHT30;59249;59.736;30.568;2023-01-29T08:46:07;1.62;84.57
71128;SHT30;59249;59.736;30.568;2023-01-29T08:48:36;1.67;84.41
71128;SHT30;59249;59.736;30.568;2023-01-29T08:51:07;1.67;84.36
71128;SHT30;59249;59.736;30.568;2023-01-29T08:53:36;1.76;84.21
71128;SHT30;59249;59.736;30.568;2023-01-29T08:56:05;1.74;84.21
71128;SHT30;59249;59.736;30.568;2023-01-29T08:58:34;1.79;84.30
71128;SHT30;59249;59.736;30.568;2023-01-29T09:01:07;1.67;84.26
71128;SHT30;59249;59.736;30.568;2023-01-29T09:03:37;1.58;84.21
71128;SHT30;59249;59.736;30.568;2023-01-29T09:06:13;1.71;84.23
71128;SHT30;59249;59.736;30.568;2023-01-29T09:08:42;1.78;84.26
71128;SHT30;59249;59.736;30.568;2023-01-29T09:11:10;1.70;84.37
71128;SHT30;59249;59.736;30.568;2023-01-29T09:13:39;1.87;84.01
71128;SHT30;59249;59.736;30.568;2023-01-29T09:16:08;1.90;83.94
71128;SHT30;59249;59.736;30.568;2023-01-29T09:18:37;1.87;83.92
71128;SHT30;59249;59.736;30.568;2023-01-29T09:21:06;1.90;83.77
71128;SHT30;59249;59.736;30.568;2023-01-29T09:23:36;1.91;83.83
71128;SHT30;59249;59.736;30.568;2023-01-29T09:26:06;1.93;83.65
71128;SHT30;59249;59.736;30.568;2023-01-29T09:28:36;1.92;83.17
71128;SHT30;59249;59.736;30.568;2023-01-29T09:31:04;2.04;83.25
71128;SHT30;59249;59.736;30.568;2023-01-29T09:33:36;1.99;83.20
71128;SHT30;59249;59.736;30.568;2023-01-29T09:36:06;2.07;83.01
71128;SHT30;59249;59.736;30.568;2023-01-29T09:38:36;2.09;83.06
71128;SHT30;59249;59.736;30.568;2023-01-29T09:41:19;2.14;83.12
71128;SHT30;59249;59.736;30.568;2023-01-29T09:43:56;2.15;82.71
71128;SHT30;59249;59.736;30.568;2023-01-29T09:46:34;2.11;82.55
71128;SHT30;59249;59.736;30.568;2023-01-29T09:49:14;2.06;82.27
71128;SHT30;59249;59.736;30.568;2023-01-29T09:52:01;2.07;82.40
71128;SHT30;59249;59.736;30.568;2023-01-29T09:54:49;1.98;82.56
71128;SHT30;59249;59.736;30.568;2023-01-29T09:57:45;1.93;82.62
71128;SHT30;59249;59.736;30.568;2023-01-29T10:00:32;2.04;82.48
71128;SHT30;59249;59.736;30.568;2023-01-29T10:03:28;2.02;82.56
71128;SHT30;59249;59.736;30.568;2023-01-29T10:06:35;1.96;82.62
71128;SHT30;59249;59.736;30.568;2023-01-29T10:09:41;2.02;82.69
71128;SHT30;59249;59.736;30.568;2023-01-29T10:12:31;1.94;82.67
71128;SHT30;59249;59.736;30.568;2023-01-29T10:15:16;2.03;82.85
71128;SHT30;59249;59.736;30.568;2023-01-29T10:18:07;1.90;82.68
71128;SHT30;59249;59.736;30.568;2023-01-29T10:20:51;1.99;82.48
71128;SHT30;59249;59.736;30.568;2023-01-29T10:23:31;2.07;82.76
71128;SHT30;59249;59.736;30.568;2023-01-29T10:26:02;1.95;82.60
71128;SHT30;59249;59.736;30.568;2023-01-29T10:28:36;2.01;82.51
71128;SHT30;59249;59.736;30.568;2023-01-29T10:31:16;2.05;82.44
71128;SHT30;59249;59.736;30.568;2023-01-29T10:33:51;2.15;82.56
71128;SHT30;59249;59.736;30.568;2023-01-29T10:36:35;2.16;82.59
71128;SHT30;59249;59.736;30.568;2023-01-29T10:39:15;2.28;82.37
71128;SHT30;59249;59.736;30.568;2023-01-29T10:42:11;2.13;82.40
71128;SHT30;59249;59.736;30.568;2023-01-29T10:45:01;2.25;82.38
71128;SHT30;59249;59.736;30.568;2023-01-29T10:48:00;2.19;82.04
71128;SHT30;59249;59.736;30.568;2023-01-29T10:50:46;2.34;82.02
71128;SHT30;59249;59.736;30.568;2023-01-29T10:53:29;2.41;81.88
71128;SHT30;59249;59.736;30.568;2023-01-29T10:56:17;2.31;81.98
71128;SHT30;59249;59.736;30.568;2023-01-29T10:58:58;2.18;81.88
71128;SHT30;59249;59.736;30.568;2023-01-29T11:01:28;2.25;81.82
71128;SHT30;59249;59.736;30.568;2023-01-29T11:04:01;2.22;81.77
71128;SHT30;59249;59.736;30.568;2023-01-29T11:06:34;2.24;81.80
71128;SHT30;59249;59.736;30.568;2023-01-29T11:09:08;2.19;81.85
71128;SHT30;59249;59.736;30.568;2023-01-29T11:11:45;1.97;81.85
71128;SHT30;59249;59.736;30.568;2023-01-29T11:14:23;2.16;82.22
71128;SHT30;59249;59.736;30.568;2023-01-29T11:16:54;2.06;82.16
71128;SHT30;59249;59.736;30.568;2023-01-29T11:19:38;2.23;82.22
71128;SHT30;59249;59.736;30.568;2023-01-29T11:22:30;2.25;82.21
71128;SHT30;59249;59.736;30.568;2023-01-29T11:28:42;2.35;82.00
71128;SHT30;59249;59.736;30.568;2023-01-29T11:31:21;2.47;82.16
71128;SHT30;59249;59.736;30.568;2023-01-29T11:34:02;2.43;82.09
71128;SHT30;59249;59.736;30.568;2023-01-29T11:36:36;2.41;81.95
71128;SHT30;59249;59.736;30.568;2023-01-29T11:39:24;2.48;81.80
71128;SHT30;59249;59.736;30.568;2023-01-29T11:41:57;2.56;81.74
71128;SHT30;59249;59.736;30.568;2023-01-29T11:44:33;2.42;81.74
71128;SHT30;59249;59.736;30.568;2023-01-29T11:47:18;2.50;81.60
71128;SHT30;59249;59.736;30.568;2023-01-29T11:49:55;2.48;81.72
71128;SHT30;59249;59.736;30.568;2023-01-29T11:52:36;2.48;81.72
71128;SHT30;59249;59.736;30.568;2023-01-29T11:55:16;2.67;81.60
71128;SHT30;59249;59.736;30.568;2023-01-29T11:57:51;2.64;81.58
71128;SHT30;59249;59.736;30.568;2023-01-29T12:00:26;2.57;81.51
71128;SHT30;59249;59.736;30.568;2023-01-29T12:03:05;2.48;81.52
71128;SHT30;59249;59.736;30.568;2023-01-29T12:05:35;2.56;81.60
71128;SHT30;59249;59.736;30.568;2023-01-29T12:08:16;2.49;81.70
71128;SHT30;59249;59.736;30.568;2023-01-29T12:11:10;2.54;81.56
71128;SHT30;59249;59.736;30.568;2023-01-29T12:13:42;2.46;81.53
71128;SHT30;59249;59.736;30.568;2023-01-29T12:16:21;2.48;81.71
71128;SHT30;59249;59.736;30.568;2023-01-29T12:19:03;2.44;81.80
71128;SHT30;59249;59.736;30.568;2023-01-29T12:21:45;2.46;81.76
71128;SHT30;59249;59.736;30.568;2023-01-29T12:24:33;2.39;81.79
71128;SHT30;59249;59.736;30.568;2023-01-29T12:27:11;2.43;81.55
71128;SHT30;59249;59.736;30.568;2023-01-29T12:29:48;2.39;81.76
71128;SHT30;59249;59.736;30.568;2023-01-29T12:32:31;2.37;81.92
71128;SHT30;59249;59.736;30.568;2023-01-29T12:35:14;2.44;81.86
71128;SHT30;59249;59.736;30.568;2023-01-29T12:37:53;2.55;81.93
71128;SHT30;59249;59.736;30.568;2023-01-29T12:40:29;2.44;81.93
71128;SHT30;59249;59.736;30.568;2023-01-29T12:43:05;2.56;81.85
71128;SHT30;59249;59.736;30.568;2023-01-29T12:45:39;2.53;81.82
71128;SHT30;59249;59.736;30.568;2023-01-29T12:48:13;2.44;81.87
71128;SHT30;59249;59.736;30.568;2023-01-29T12:50:46;2.32;81.92
71128;SHT30;59249;59.736;30.568;2023-01-29T12:53:25;2.48;82.01
71128;SHT30;59249;59.736;30.568;2023-01-29T12:56:01;2.47;81.95
71128;SHT30;59249;59.736;30.568;2023-01-29T12:58:36;2.39;81.93
71128;SHT30;59249;59.736;30.568;2023-01-29T13:01:14;2.30;82.09
71128;SHT30;59249;59.736;30.568;2023-01-29T13:03:52;2.39;81.93
71128;SHT30;59249;59.736;30.568;2023-01-29T13:06:30;2.29;81.95
71128;SHT30;59249;59.736;30.568;2023-01-29T13:09:05;2.33;82.09
71128;SHT30;59249;59.736;30.568;2023-01-29T13:11:41;2.33;81.91
71128;SHT30;59249;59.736;30.568;2023-01-29T13:14:19;2.34;82.07
71128;SHT30;59249;59.736;30.568;2023-01-29T13:16:56;2.37;82.11
71128;SHT30;59249;59.736;30.568;2023-01-29T13:19:35;2.27;82.07
71128;SHT30;59249;59.736;30.568;2023-01-29T13:22:19;2.32;82.00
71128;SHT30;59249;59.736;30.568;2023-01-29T13:24:52;2.40;82.03
71128;SHT30;59249;59.736;30.568;2023-01-29T13:27:34;2.33;81.86
71128;SHT30;59249;59.736;30.568;2023-01-29T13:30:05;2.35;81.95
71128;SHT30;59249;59.736;30.568;2023-01-29T13:32:37;2.35;81.75
71128;SHT30;59249;59.736;30.568;2023-01-29T13:35:13;2.25;81.80
71128;SHT30;59249;59.736;30.568;2023-01-29T13:37:50;2.28;81.74
71128;SHT30;59249;59.736;30.568;2023-01-29T13:40:25;2.34;81.85
71128;SHT30;59249;59.736;30.568;2023-01-29T13:42:56;2.28;81.95
71128;SHT30;59249;59.736;30.568;2023-01-29T13:45:34;2.21;82.15
71128;SHT30;59249;59.736;30.568;2023-01-29T13:48:20;2.25;82.36
71128;SHT30;59249;59.736;30.568;2023-01-29T13:50:53;2.21;82.43
71128;SHT30;59249;59.736;30.568;2023-01-29T13:53:28;2.13;82.43
71128;SHT30;59249;59.736;30.568;2023-01-29T13:56:29;2.14;82.61
71128;SHT30;59249;59.736;30.568;2023-01-29T13:59:22;2.15;82.65
71128;SHT30;59249;59.736;30.568;2023-01-29T14:02:03;2.04;82.82
71128;SHT30;59249;59.736;30.568;2023-01-29T14:04:46;1.99;82.73
71128;SHT30;59249;59.736;30.568;2023-01-29T14:07:49;2.07;82.81
71128;SHT30;59249;59.736;30.568;2023-01-29T14:10:21;2.10;82.79
71128;SHT30;59249;59.736;30.568;2023-01-29T14:12:52;2.13;82.79
71128;SHT30;59249;59.736;30.568;2023-01-29T14:15:32;2.08;82.75
71128;SHT30;59249;59.736;30.568;2023-01-29T14:18:24;2.17;82.81
71128;SHT30;59249;59.736;30.568;2023-01-29T14:21:02;2.18;82.77
71128;SHT30;59249;59.736;30.568;2023-01-29T14:23:40;1.99;82.94
71128;SHT30;59249;59.736;30.568;2023-01-29T14:26:26;2.05;82.99
71128;SHT30;59249;59.736;30.568;2023-01-29T14:29:02;2.01;83.09
71128;SHT30;59249;59.736;30.568;2023-01-29T14:31:47;2.06;83.07
71128;SHT30;59249;59.736;30.568;2023-01-29T14:34:25;2.09;83.13
71128;SHT30;59249;59.736;30.568;2023-01-29T14:36:57;1.99;83.08
71128;SHT30;59249;59.736;30.568;2023-01-29T14:39:35;1.97;83.15
71128;SHT30;59249;59.736;30.568;2023-01-29T14:42:21;1.97;83.19
71128;SHT30;59249;59.736;30.568;2023-01-29T14:45:07;2.10;83.22
71128;SHT30;59249;59.736;30.568;2023-01-29T14:48:02;2.04;83.30
71128;SHT30;59249;59.736;30.568;2023-01-29T14:50:46;2.02;83.13
71128;SHT30;59249;59.736;30.568;2023-01-29T14:53:32;2.06;83.17
71128;SHT30;59249;59.736;30.568;2023-01-29T14:56:14;1.90;83.27
71128;SHT30;59249;59.736;30.568;2023-01-29T14:58:48;1.90;83.53
71128;SHT30;59249;59.736;30.568;2023-01-29T15:01:22;1.86;83.52
71128;SHT30;59249;59.736;30.568;2023-01-29T15:03:55;1.83;83.53
71128;SHT30;59249;59.736;30.568;2023-01-29T15:06:32;1.81;83.64
71128;SHT30;59249;59.736;30.568;2023-01-29T15:09:13;1.85;83.69
71128;SHT30;59249;59.736;30.568;2023-01-29T15:11:52;1.76;83.70
71128;SHT30;59249;59.736;30.568;2023-01-29T15:14:31;1.78;83.87
71128;SHT30;59249;59.736;30.568;2023-01-29T15:17:20;1.80;84.04
71128;SHT30;59249;59.736;30.568;2023-01-29T15:19:51;1.73;84.11
71128;SHT30;59249;59.736;30.568;2023-01-29T15:22:22;1.77;84.07
71128;SHT30;59249;59.736;30.568;2023-01-29T15:25:05;1.75;84.21
71128;SHT30;59249;59.736;30.568;2023-01-29T15:27:34;1.64;84.29
71128;SHT30;59249;59.736;30.568;2023-01-29T15:30:06;1.74;84.33
71128;SHT30;59249;59.736;30.568;2023-01-29T15:32:38;1.76;84.48
71128;SHT30;59249;59.736;30.568;2023-01-29T15:35:10;1.72;84.57
71128;SHT30;59249;59.736;30.568;2023-01-29T15:37:57;1.78;84.61
71128;SHT30;59249;59.736;30.568;2023-01-29T15:40:26;1.79;84.74
71128;SHT30;59249;59.736;30.568;2023-01-29T15:42:55;1.81;84.69
71128;SHT30;59249;59.736;30.568;2023-01-29T15:45:29;1.82;84.69
71128;SHT30;59249;59.736;30.568;2023-01-29T15:48:03;1.82;84.95
71128;SHT30;59249;59.736;30.568;2023-01-29T15:50:40;1.83;84.99
71128;SHT30;59249;59.736;30.568;2023-01-29T15:53:16;1.95;85.02
71128;SHT30;59249;59.736;30.568;2023-01-29T15:55:46;1.86;84.99
71128;SHT30;59249;59.736;30.568;2023-01-29T15:58:28;1.86;85.02
71128;SHT30;59249;59.736;30.568;2023-01-29T16:01:00;1.95;84.92
71128;SHT30;59249;59.736;30.568;2023-01-29T16:03:32;1.88;84.88
71128;SHT30;59249;59.736;30.568;2023-01-29T16:06:02;1.95;85.02
71128;SHT30;59249;59.736;30.568;2023-01-29T16:08:34;1.97;85.14
71128;SHT30;59249;59.736;30.568;2023-01-29T16:11:05;1.93;85.01
71128;SHT30;59249;59.736;30.568;2023-01-29T16:13:39;1.94;85.05
71128;SHT30;59249;59.736;30.568;2023-01-29T16:16:20;1.97;85.11
71128;SHT30;59249;59.736;30.568;2023-01-29T16:18:51;1.98;85.05
71128;SHT30;59249;59.736;30.568;2023-01-29T16:21:31;1.96;84.96
71128;SHT30;59249;59.736;30.568;2023-01-29T16:24:07;2.04;85.14